createdAt,value
2018-02-19T00:00:30.399Z,99037.11
2018-02-19T00:02:57.899Z,99033.96
2018-02-19T00:05:25.467Z,99036.25
2018-02-19T00:07:52.960Z,99032.25
2018-02-19T00:10:21.222Z,99030.90
2018-02-19T00:12:48.708Z,99027.10
2018-02-19T00:15:16.220Z,99030.98
2018-02-19T00:17:43.903Z,99024.67
2018-02-19T00:20:11.437Z,99029.48
2018-02-19T00:22:38.929Z,99028.97
2018-02-19T00:25:06.448Z,99026.77
2018-02-19T00:27:33.940Z,99023.36
2018-02-19T00:30:01.460Z,99021.96
2018-02-19T00:32:28.993Z,99014.98
2018-02-19T00:34:56.554Z,99014.48
2018-02-19T00:37:24.060Z,99008.09
2018-02-19T00:39:55.027Z,99012.17
2018-02-19T00:42:22.511Z,99012.68
2018-02-19T00:44:50.027Z,99008.69
2018-02-19T00:47:17.520Z,98999.34
2018-02-19T00:49:45.067Z,98994.27
2018-02-19T00:52:12.559Z,98996.17
2018-02-19T00:54:40.104Z,98990.48
2018-02-19T00:57:07.619Z,98987.04
2018-02-19T00:59:35.247Z,98989.68
2018-02-19T01:02:02.765Z,98986.45
2018-02-19T01:04:30.408Z,98986.17
2018-02-19T01:06:57.923Z,98978.77
2018-02-19T01:09:25.439Z,98978.31
2018-02-19T01:11:52.957Z,98971.84
2018-02-19T01:14:20.489Z,98980.67
2018-02-19T01:16:52.768Z,98983.78
2018-02-19T01:19:22.268Z,98980.21
2018-02-19T01:21:51.798Z,98978.94
2018-02-19T01:24:19.356Z,98973.16
2018-02-19T01:26:46.875Z,98969.89
2018-02-19T01:29:14.359Z,98973.04
2018-02-19T01:31:41.889Z,98971.29
2018-02-19T01:34:09.463Z,98966.33
2018-02-19T01:36:37.327Z,98966.12
2018-02-19T01:39:04.861Z,98962.89
2018-02-19T01:41:32.684Z,98969.86
2018-02-19T01:44:00.180Z,98970.29
2018-02-19T01:46:27.694Z,98968.03
2018-02-19T01:48:55.212Z,98964.55
2018-02-19T01:51:22.731Z,98963.79
2018-02-19T01:53:50.276Z,98958.94
2018-02-19T01:56:17.792Z,98961.73
2018-02-19T01:58:46.268Z,98960.81
2018-02-19T02:01:13.828Z,98956.00
2018-02-19T02:03:41.315Z,98952.98
2018-02-19T02:06:08.835Z,98956.59
2018-02-19T02:08:36.419Z,98953.19
2018-02-19T02:11:03.960Z,98952.30
2018-02-19T02:13:31.538Z,98945.33
2018-02-19T02:15:59.051Z,98949.87
2018-02-19T02:18:26.535Z,98941.47
2018-02-19T02:20:54.048Z,98945.84
2018-02-19T02:23:21.544Z,98937.69
2018-02-19T02:25:49.076Z,98942.45
2018-02-19T02:28:16.567Z,98940.70
2018-02-19T02:30:44.064Z,98938.07
2018-02-19T02:33:11.592Z,98936.75
2018-02-19T02:35:39.096Z,98931.44
2018-02-19T02:38:06.618Z,98935.05
2018-02-19T02:40:34.107Z,98935.05
2018-02-19T02:43:01.648Z,98931.48
2018-02-19T02:45:29.913Z,98929.31
2018-02-19T02:47:58.406Z,98921.84
2018-02-19T02:50:25.911Z,98919.75
2018-02-19T02:52:53.439Z,98918.14
2018-02-19T02:55:21.001Z,98912.70
2018-02-19T02:57:48.518Z,98908.75
2018-02-19T03:00:16.092Z,98904.03
2018-02-19T03:02:43.602Z,98905.09
2018-02-19T03:05:11.088Z,98905.52
2018-02-19T03:07:38.606Z,98913.92
2018-02-19T03:10:06.106Z,98904.75
2018-02-19T03:12:33.619Z,98898.97
2018-02-19T03:15:01.115Z,98901.19
2018-02-19T03:17:28.668Z,98897.57
2018-02-19T03:19:56.167Z,98898.76
2018-02-19T03:22:23.786Z,98896.00
2018-02-19T03:24:51.280Z,98894.55
2018-02-19T03:27:18.829Z,98899.36
2018-02-19T03:29:46.328Z,98895.44
2018-02-19T03:32:13.851Z,98896.77
2018-02-19T03:34:41.366Z,98901.95
2018-02-19T03:37:08.880Z,98899.36
2018-02-19T03:39:36.425Z,98899.66
2018-02-19T03:42:03.943Z,98902.38
2018-02-19T03:44:32.351Z,98894.60
2018-02-19T03:46:59.852Z,98895.95
2018-02-19T03:49:27.367Z,98891.58
2018-02-19T03:51:54.960Z,98898.63
2018-02-19T03:54:22.479Z,98895.62
2018-02-19T03:56:49.972Z,98899.05
2018-02-19T03:59:17.487Z,98895.58
2018-02-19T04:01:44.992Z,98887.03
2018-02-19T04:04:12.499Z,98873.05
2018-02-19T04:06:41.042Z,98872.03
2018-02-19T04:09:08.573Z,98870.20
2018-02-19T04:11:36.051Z,98874.41
2018-02-19T04:14:03.555Z,98867.69
2018-02-19T04:16:31.061Z,98871.09
2018-02-19T04:18:58.570Z,98865.78
2018-02-19T04:21:26.084Z,98864.84
2018-02-19T04:23:53.620Z,98863.65
2018-02-19T04:26:21.140Z,98862.94
2018-02-19T04:28:48.647Z,98858.18
2018-02-19T04:31:16.159Z,98853.03
2018-02-19T04:33:43.687Z,98849.22
2018-02-19T04:36:11.182Z,98849.34
2018-02-19T04:38:38.687Z,98845.91
2018-02-19T04:41:06.180Z,98848.07
2018-02-19T04:43:34.723Z,98844.08
2018-02-19T04:46:06.656Z,98840.72
2018-02-19T04:48:34.170Z,98838.98
2018-02-19T04:51:01.663Z,98855.20
2018-02-19T04:53:29.196Z,98838.09
2018-02-19T04:55:56.679Z,98832.41
2018-02-19T04:58:24.216Z,98827.05
2018-02-19T05:00:51.723Z,98824.31
2018-02-19T05:03:19.211Z,98826.49
2018-02-19T05:05:46.752Z,98820.33
2018-02-19T05:08:14.239Z,98816.28
2018-02-19T05:10:41.752Z,98817.98
2018-02-19T05:13:09.267Z,98818.54
2018-02-19T05:15:37.999Z,98818.88
2018-02-19T05:18:05.486Z,98812.33
2018-02-19T05:20:33.004Z,98813.66
2018-02-19T05:23:00.892Z,98809.70
2018-02-19T05:25:28.755Z,98804.99
2018-02-19T05:27:56.249Z,98802.06
2018-02-19T05:30:23.779Z,98807.28
2018-02-19T05:32:51.283Z,98808.94
2018-02-19T05:35:18.795Z,98810.39
2018-02-19T05:37:46.313Z,98814.13
2018-02-19T05:40:13.838Z,98821.69
2018-02-19T05:42:41.336Z,98817.41
2018-02-19T05:45:08.885Z,98821.86
2018-02-19T05:47:36.387Z,98820.97
2018-02-19T05:50:03.988Z,98822.24
2018-02-19T05:52:32.095Z,98822.20
2018-02-19T05:54:59.630Z,98822.11
2018-02-19T05:57:27.115Z,98824.23
2018-02-19T05:59:54.653Z,98824.41
2018-02-19T06:02:22.151Z,98827.52
2018-02-19T06:04:49.673Z,98828.44
2018-02-19T06:07:17.155Z,98827.05
2018-02-19T06:09:44.674Z,98826.06
2018-02-19T06:12:12.158Z,98830.11
2018-02-19T06:14:39.684Z,98825.77
2018-02-19T06:17:07.200Z,98825.72
2018-02-19T06:19:34.705Z,98827.92
2018-02-19T06:22:02.229Z,98826.95
2018-02-19T06:24:29.727Z,98825.17
2018-02-19T06:26:57.240Z,98827.38
2018-02-19T06:29:24.732Z,98831.76
2018-02-19T06:31:52.244Z,98835.41
2018-02-19T06:34:19.737Z,98834.52
2018-02-19T06:36:47.252Z,98834.94
2018-02-19T06:39:14.744Z,98837.20
2018-02-19T06:41:42.284Z,98837.45
2018-02-19T06:44:09.776Z,98832.42
2018-02-19T06:46:38.271Z,98834.04
2018-02-19T06:49:05.772Z,98833.62
2018-02-19T06:51:33.306Z,98836.96
2018-02-19T06:54:00.812Z,98832.79
2018-02-19T06:56:28.327Z,98830.40
2018-02-19T06:58:55.823Z,98832.66
2018-02-19T07:01:23.361Z,98828.48
2018-02-19T07:03:50.848Z,98830.83
2018-02-19T07:06:18.383Z,98828.20
2018-02-19T07:08:45.872Z,98831.59
2018-02-19T07:11:13.403Z,98829.58
2018-02-19T07:13:40.990Z,98824.16
2018-02-19T07:16:08.495Z,98825.27
2018-02-19T07:18:36.003Z,98820.61
2018-02-19T07:21:03.513Z,98822.54
2018-02-19T07:23:31.077Z,98823.87
2018-02-19T07:25:58.581Z,98828.86
2018-02-19T07:28:26.095Z,98826.23
2018-02-19T07:30:53.623Z,98825.09
2018-02-19T07:33:21.156Z,98824.47
2018-02-19T07:35:48.686Z,98821.74
2018-02-19T07:38:16.224Z,98814.26
2018-02-19T07:40:43.720Z,98816.28
2018-02-19T07:43:11.231Z,98818.31
2018-02-19T07:45:38.715Z,98817.56
2018-02-19T07:48:06.330Z,98817.09
2018-02-19T07:50:33.832Z,98817.00
2018-02-19T07:53:01.356Z,98821.89
2018-02-19T07:55:29.200Z,98820.11
2018-02-19T07:57:56.733Z,98818.55
2018-02-19T08:00:24.220Z,98813.70
2018-02-19T08:02:51.736Z,98818.27
2018-02-19T08:05:19.277Z,98808.23
2018-02-19T08:07:46.795Z,98813.52
2018-02-19T08:10:14.288Z,98811.68
2018-02-19T08:12:41.825Z,98814.73
2018-02-19T08:15:09.336Z,98816.70
2018-02-19T08:17:36.868Z,98818.69
2018-02-19T08:20:04.384Z,98816.65
2018-02-19T08:22:31.995Z,98816.70
2018-02-19T08:24:59.513Z,98818.52
2018-02-19T08:27:27.012Z,98814.79
2018-02-19T08:29:54.531Z,98816.36
2018-02-19T08:32:22.015Z,98817.48
2018-02-19T08:34:50.510Z,98815.48
2018-02-19T08:37:18.027Z,98808.56
2018-02-19T08:39:45.539Z,98813.95
2018-02-19T08:42:13.040Z,98809.06
2018-02-19T08:44:40.592Z,98815.33
2018-02-19T08:47:08.109Z,98817.34
2018-02-19T08:49:35.640Z,98818.38
2018-02-19T08:52:03.136Z,98812.08
2018-02-19T08:54:30.660Z,98811.22
2018-02-19T08:56:58.156Z,98810.19
2018-02-19T08:59:25.678Z,98810.33
2018-02-19T09:01:53.159Z,98811.59
2018-02-19T09:04:20.672Z,98813.70
2018-02-19T09:06:48.190Z,98814.20
2018-02-19T09:09:15.711Z,98810.97
2018-02-19T09:11:43.199Z,98807.33
2018-02-19T09:14:10.732Z,98810.30
2018-02-19T09:16:38.229Z,98804.44
2018-02-19T09:19:05.748Z,98804.39
2018-02-19T09:21:33.340Z,98805.03
2018-02-19T09:24:00.842Z,98799.17
2018-02-19T09:26:28.373Z,98800.61
2018-02-19T09:28:55.864Z,98793.53
2018-02-19T09:31:23.370Z,98793.41
2018-02-19T09:33:51.024Z,98795.58
2018-02-19T09:36:18.690Z,98798.91
2018-02-19T09:38:46.220Z,98784.25
2018-02-19T09:44:17.008Z,98786.38
2018-02-19T09:46:44.547Z,98782.07
2018-02-19T09:49:12.035Z,98787.22
2018-02-19T09:51:39.572Z,98785.08
2018-02-19T09:54:07.068Z,98787.86
2018-02-19T09:56:34.579Z,98783.05
2018-02-19T09:59:02.063Z,98787.77
2018-02-19T10:01:29.579Z,98780.25
2018-02-19T10:03:57.188Z,98784.38
2018-02-19T10:06:24.733Z,98782.02
2018-02-19T10:08:52.248Z,98779.90
2018-02-19T10:11:19.851Z,98778.80
2018-02-19T10:13:47.335Z,98779.41
2018-02-19T10:16:14.860Z,98785.22
2018-02-19T10:18:42.348Z,98787.56
2018-02-19T10:21:09.990Z,98789.64
2018-02-19T10:23:37.491Z,98795.16
2018-02-19T10:26:05.135Z,98795.09
2018-02-19T10:28:32.671Z,98794.77
2018-02-19T10:31:00.187Z,98794.48
2018-02-19T10:33:27.679Z,98788.65
2018-02-19T10:35:55.231Z,98791.86
2018-02-19T10:38:22.921Z,98796.88
2018-02-19T10:40:50.456Z,98794.21
2018-02-19T10:43:17.962Z,98781.84
2018-02-19T10:45:45.486Z,98779.98
2018-02-19T10:48:13.042Z,98782.65
2018-02-19T10:50:40.595Z,98773.23
2018-02-19T10:53:08.176Z,98770.54
2018-02-19T10:55:35.719Z,98774.72
2018-02-19T10:58:03.235Z,98765.08
2018-02-19T11:00:36.394Z,98759.80
2018-02-19T11:03:03.931Z,98763.73
2018-02-19T11:05:31.426Z,98757.28
2018-02-19T11:07:58.940Z,98761.73
2018-02-19T11:10:26.430Z,98753.78
2018-02-19T11:12:53.957Z,98752.22
2018-02-19T11:15:21.632Z,98749.98
2018-02-19T11:17:49.148Z,98747.94
2018-02-19T11:20:16.752Z,98738.96
2018-02-19T11:22:44.312Z,98739.74
2018-02-19T11:25:11.812Z,98743.70
2018-02-19T11:27:39.331Z,98736.39
2018-02-19T11:30:07.778Z,98737.54
2018-02-19T11:32:35.288Z,98740.92
2018-02-19T11:35:03.713Z,98737.33
2018-02-19T11:37:31.264Z,98736.72
2018-02-19T11:39:58.750Z,98738.89
2018-02-19T11:42:26.316Z,98732.88
2018-02-19T11:44:54.764Z,98731.24
2018-02-19T11:47:22.279Z,98727.82
2018-02-19T11:49:49.767Z,98726.25
2018-02-19T11:52:17.279Z,98717.31
2018-02-19T11:54:44.837Z,98709.47
2018-02-19T11:57:12.347Z,98713.22
2018-02-19T11:59:39.843Z,98716.12
2018-02-19T12:02:07.411Z,98709.70
2018-02-19T12:04:34.974Z,98702.48
2018-02-19T12:07:02.470Z,98706.73
2018-02-19T12:09:30.084Z,98702.88
2018-02-19T12:11:57.581Z,98705.50
2018-02-19T12:14:25.203Z,98703.48
2018-02-19T12:16:52.737Z,98704.80
2018-02-19T12:19:20.251Z,98703.54
2018-02-19T12:21:47.780Z,98700.77
2018-02-19T12:24:15.291Z,98695.90
2018-02-19T12:26:42.784Z,98688.98
2018-02-19T12:29:10.307Z,98692.27
2018-02-19T12:31:37.860Z,98690.63
2018-02-19T12:34:05.483Z,98687.88
2018-02-19T12:36:32.975Z,98684.38
2018-02-19T12:39:00.505Z,98685.67
2018-02-19T12:41:28.060Z,98677.89
2018-02-19T12:43:55.620Z,98679.79
2018-02-19T12:46:23.112Z,98681.31
2018-02-19T12:48:50.624Z,98674.63
2018-02-19T12:51:18.118Z,98675.33
2018-02-19T12:53:45.659Z,98675.33
2018-02-19T12:56:13.151Z,98674.34
2018-02-19T12:58:40.679Z,98670.66
2018-02-19T13:01:08.171Z,98667.29
2018-02-19T13:03:35.739Z,98662.86
2018-02-19T13:06:03.247Z,98664.16
2018-02-19T13:08:30.831Z,98663.56
2018-02-19T13:10:58.367Z,98659.09
2018-02-19T13:13:25.940Z,98659.36
2018-02-19T13:15:53.440Z,98657.33
2018-02-19T13:18:21.109Z,98658.66
2018-02-19T13:20:48.591Z,98658.59
2018-02-19T13:23:16.191Z,98650.81
2018-02-19T13:25:43.691Z,98648.20
2018-02-19T13:28:11.284Z,98650.25
2018-02-19T13:30:38.801Z,98642.98
2018-02-19T13:33:06.308Z,98645.80
2018-02-19T13:35:33.855Z,98645.66
2018-02-19T13:38:01.419Z,98641.45
2018-02-19T13:40:28.980Z,98643.70
2018-02-19T13:42:56.471Z,98641.84
2018-02-19T13:45:23.987Z,98645.90
2018-02-19T13:47:51.559Z,98648.81
2018-02-19T13:50:19.966Z,98646.67
2018-02-19T13:52:47.472Z,98644.22
2018-02-19T13:55:14.983Z,98645.55
2018-02-19T13:57:42.479Z,98643.14
2018-02-19T14:00:09.996Z,98646.48
2018-02-19T14:02:37.510Z,98632.27
2018-02-19T14:05:05.091Z,98629.75
2018-02-19T14:07:32.653Z,98619.70
2018-02-19T14:10:00.180Z,98614.86
2018-02-19T14:12:27.698Z,98618.64
2018-02-19T14:14:55.228Z,98613.87
2018-02-19T14:17:22.764Z,98610.33
2018-02-19T14:19:50.300Z,98615.28
2018-02-19T14:22:17.803Z,98611.16
2018-02-19T14:24:45.311Z,98613.69
2018-02-19T14:27:12.826Z,98610.11
2018-02-19T14:29:40.479Z,98604.50
2018-02-19T14:32:07.973Z,98608.84
2018-02-19T14:34:35.497Z,98608.86
2018-02-19T14:37:02.988Z,98604.57
2018-02-19T14:39:30.620Z,98597.83
2018-02-19T14:41:58.135Z,98600.84
2018-02-19T14:44:25.646Z,98600.91
2018-02-19T14:46:53.135Z,98604.81
2018-02-19T14:49:20.667Z,98603.31
2018-02-19T14:51:48.216Z,98597.46
2018-02-19T14:54:15.747Z,98598.64
2018-02-19T14:56:43.239Z,98595.58
2018-02-19T14:59:10.769Z,98600.06
2018-02-19T15:01:38.351Z,98597.98
2018-02-19T15:04:05.913Z,98596.02
2018-02-19T15:06:33.423Z,98594.94
2018-02-19T15:09:00.916Z,98594.33
2018-02-19T15:11:28.449Z,98596.14
2018-02-19T15:13:56.047Z,98590.35
2018-02-19T15:16:23.563Z,98593.08
2018-02-19T15:21:14.126Z,98584.92
2018-02-19T15:23:41.698Z,98576.37
2018-02-19T15:26:09.354Z,98579.65
2018-02-19T15:28:36.848Z,98577.36
2018-02-19T15:31:04.364Z,98573.76
2018-02-19T15:33:31.919Z,98574.46
2018-02-19T15:35:59.480Z,98570.94
2018-02-19T15:38:26.976Z,98573.52
2018-02-19T15:40:54.496Z,98572.74
2018-02-19T15:43:22.000Z,98571.62
2018-02-19T15:45:49.512Z,98580.20
2018-02-19T15:48:17.089Z,98578.80
2018-02-19T15:50:44.735Z,98581.09
2018-02-19T15:53:12.395Z,98580.49
2018-02-19T15:55:39.898Z,98581.52
2018-02-19T15:58:07.388Z,98581.98
2018-02-19T16:00:34.896Z,98584.83
2018-02-19T16:03:02.392Z,98582.88
2018-02-19T16:05:29.911Z,98584.11
2018-02-19T16:07:57.439Z,98586.47
2018-02-19T16:10:24.960Z,98592.11
2018-02-19T16:12:52.456Z,98587.62
2018-02-19T16:15:19.980Z,98593.55
2018-02-19T16:17:47.465Z,98593.52
2018-02-19T16:20:15.036Z,98596.23
2018-02-19T16:22:42.552Z,98599.44
2018-02-19T16:25:10.052Z,98594.55
2018-02-19T16:27:37.620Z,98592.13
2018-02-19T16:30:05.111Z,98589.83
2018-02-19T16:32:32.736Z,98585.06
2018-02-19T16:35:00.292Z,98584.34
2018-02-19T16:37:27.805Z,98581.86
2018-02-19T16:39:55.311Z,98588.84
2018-02-19T16:42:23.156Z,98587.73
2018-02-19T16:44:50.679Z,98584.31
2018-02-19T16:47:18.195Z,98580.94
2018-02-19T16:49:45.776Z,98582.91
2018-02-19T16:52:13.292Z,98578.20
2018-02-19T16:54:40.785Z,98579.73
2018-02-19T16:57:08.525Z,98576.11
2018-02-19T16:59:36.014Z,98578.08
2018-02-19T17:02:03.520Z,98574.81
2018-02-19T17:04:31.007Z,98576.27
2018-02-19T17:06:58.567Z,98574.28
2018-02-19T17:09:26.131Z,98581.30
2018-02-19T17:11:53.708Z,98576.45
2018-02-19T17:14:21.211Z,98574.80
2018-02-19T17:16:48.724Z,98578.66
2018-02-19T17:19:16.288Z,98578.28
2018-02-19T17:21:43.796Z,98576.45
2018-02-19T17:24:11.389Z,98572.70
2018-02-19T17:26:38.900Z,98570.59
2018-02-19T17:29:06.423Z,98572.38
2018-02-19T17:31:33.942Z,98574.19
2018-02-19T17:34:01.433Z,98568.84
2018-02-19T17:36:28.950Z,98569.38
2018-02-19T17:38:57.045Z,98568.16
2018-02-19T17:41:24.591Z,98569.90
2018-02-19T17:43:52.200Z,98571.75
2018-02-19T17:46:19.724Z,98575.88
2018-02-19T17:48:47.299Z,98576.77
2018-02-19T17:51:14.847Z,98578.15
2018-02-19T17:53:42.424Z,98564.58
2018-02-19T17:56:09.924Z,98565.44
2018-02-19T17:58:37.533Z,98568.13
2018-02-19T18:01:05.096Z,98565.02
2018-02-19T18:03:32.650Z,98569.55
2018-02-19T18:06:00.143Z,98559.42
2018-02-19T18:08:27.654Z,98563.48
2018-02-19T18:10:55.140Z,98561.36
2018-02-19T18:13:22.648Z,98554.83
2018-02-19T18:15:50.264Z,98544.48
2018-02-19T18:18:17.832Z,98540.73
2018-02-19T18:20:45.367Z,98543.02
2018-02-19T18:23:12.928Z,98541.80
2018-02-19T18:25:40.528Z,98541.74
2018-02-19T18:28:08.076Z,98539.17
2018-02-19T18:30:35.575Z,98543.75
2018-02-19T18:33:03.111Z,98545.08
2018-02-19T18:35:30.664Z,98542.12
2018-02-19T18:37:58.184Z,98541.63
2018-02-19T18:40:25.723Z,98541.38
2018-02-19T18:42:53.235Z,98541.36
2018-02-19T18:45:21.668Z,98540.53
2018-02-19T18:47:49.247Z,98544.00
2018-02-19T18:50:16.776Z,98540.53
2018-02-19T18:52:44.296Z,98546.55
2018-02-19T18:55:11.820Z,98544.38
2018-02-19T18:57:39.358Z,98541.95
2018-02-19T19:00:06.927Z,98545.39
2018-02-19T19:02:34.479Z,98543.11
2018-02-19T19:05:01.987Z,98542.89
2018-02-19T19:07:41.677Z,98540.20
2018-02-19T19:10:21.147Z,98541.57
2018-02-19T19:12:48.704Z,98540.36
2018-02-19T19:15:16.267Z,98535.61
2018-02-19T19:17:43.772Z,98532.77
2018-02-19T19:20:11.264Z,98526.33
2018-02-19T19:22:38.780Z,98523.80
2018-02-19T19:25:06.267Z,98520.73
2018-02-19T19:27:33.805Z,98534.46
2018-02-19T19:30:01.412Z,98536.58
2018-02-19T19:32:28.952Z,98540.95
2018-02-19T19:34:56.477Z,98546.13
2018-02-19T19:37:23.992Z,98545.70
2018-02-19T19:39:51.548Z,98539.38
2018-02-19T19:42:19.043Z,98544.05
2018-02-19T19:44:46.562Z,98533.14
2018-02-19T19:47:14.048Z,98522.73
2018-02-19T19:49:41.587Z,98525.38
2018-02-19T19:52:09.093Z,98523.79
2018-02-19T19:54:36.611Z,98524.33
2018-02-19T19:57:04.120Z,98528.38
2018-02-19T19:59:31.643Z,98524.11
2018-02-19T20:01:59.175Z,98527.23
2018-02-19T20:04:26.691Z,98529.66
2018-02-19T20:06:54.191Z,98533.62
2018-02-19T20:09:21.716Z,98535.05
2018-02-19T20:11:49.948Z,98534.98
2018-02-19T20:14:17.469Z,98533.89
2018-02-19T20:16:45.168Z,98535.61
2018-02-19T20:19:12.699Z,98527.17
2018-02-19T20:21:40.196Z,98522.22
2018-02-19T20:24:07.720Z,98527.97
2018-02-19T20:26:35.213Z,98519.73
2018-02-19T20:29:02.736Z,98525.53
2018-02-19T20:31:30.229Z,98524.27
2018-02-19T20:33:57.758Z,98517.84
2018-02-19T20:36:25.256Z,98519.89
2018-02-19T20:38:52.780Z,98520.74
2018-02-19T20:41:20.353Z,98525.02
2018-02-19T20:43:47.868Z,98519.27
2018-02-19T20:46:15.363Z,98518.89
2018-02-19T20:48:42.927Z,98515.89
2018-02-19T20:51:10.497Z,98516.31
2018-02-19T20:53:38.039Z,98518.83
2018-02-19T20:56:05.540Z,98513.88
2018-02-19T20:58:33.056Z,98514.19
2018-02-19T21:01:00.624Z,98503.70
2018-02-19T21:03:28.147Z,98504.53
2018-02-19T21:05:55.643Z,98502.91
2018-02-19T21:08:23.359Z,98498.22
2018-02-19T21:10:50.864Z,98507.02
2018-02-19T21:13:18.385Z,98497.69
2018-02-19T21:15:46.244Z,98493.88
2018-02-19T21:18:13.750Z,98494.36
2018-02-19T21:20:41.339Z,98484.59
2018-02-19T21:23:08.828Z,98493.78
2018-02-19T21:25:36.350Z,98494.63
2018-02-19T21:28:03.849Z,98484.43
2018-02-19T21:30:31.736Z,98484.92
2018-02-19T21:32:59.304Z,98485.03
2018-02-19T21:35:26.812Z,98478.11
2018-02-19T21:37:54.319Z,98479.53
2018-02-19T21:40:21.896Z,98470.41
2018-02-19T21:42:49.383Z,98473.16
2018-02-19T21:45:16.928Z,98469.47
2018-02-19T21:47:44.526Z,98473.72
2018-02-19T21:50:12.115Z,98467.44
2018-02-19T21:52:39.604Z,98466.23
2018-02-19T21:55:07.124Z,98461.02
2018-02-19T21:57:34.616Z,98465.52
2018-02-19T22:00:02.147Z,98462.56
2018-02-19T22:02:29.651Z,98464.98
2018-02-19T22:04:57.172Z,98463.17
2018-02-19T22:07:25.924Z,98452.95
2018-02-19T22:09:53.619Z,98452.47
2018-02-19T22:12:21.179Z,98457.00
2018-02-19T22:14:48.705Z,98461.06
2018-02-19T22:17:16.198Z,98454.89
2018-02-19T22:19:43.712Z,98452.86
2018-02-19T22:22:11.208Z,98456.48
2018-02-19T22:24:38.718Z,98453.00
2018-02-19T22:27:06.236Z,98437.48
2018-02-19T22:29:33.792Z,98447.34
2018-02-19T22:32:01.283Z,98446.27
2018-02-19T22:34:28.804Z,98447.00
2018-02-19T22:36:56.367Z,98443.78
2018-02-19T22:39:23.923Z,98439.30
2018-02-19T22:41:51.488Z,98442.16
2018-02-19T22:44:19.064Z,98436.98
2018-02-19T22:46:46.612Z,98439.58
2018-02-19T22:49:14.240Z,98446.89
2018-02-19T22:51:41.824Z,98445.26
2018-02-19T22:54:09.334Z,98448.48
2018-02-19T22:56:36.947Z,98445.89
2018-02-19T22:59:04.510Z,98448.96
2018-02-19T23:01:32.067Z,98438.55
2018-02-19T23:03:59.558Z,98437.84
2018-02-19T23:06:27.205Z,98435.78
2018-02-19T23:08:54.691Z,98434.77
2018-02-19T23:11:22.208Z,98433.56
2018-02-19T23:13:49.700Z,98434.50
2018-02-19T23:16:17.212Z,98433.34
2018-02-19T23:18:44.699Z,98438.79
2018-02-19T23:21:12.228Z,98438.31
2018-02-19T23:23:39.712Z,98436.27
2018-02-19T23:26:07.223Z,98436.31
2018-02-19T23:28:34.708Z,98432.04
2018-02-19T23:31:02.217Z,98424.97
2018-02-19T23:33:29.715Z,98424.50
2018-02-19T23:35:57.241Z,98422.92
2018-02-19T23:38:24.728Z,98431.67
2018-02-19T23:40:52.255Z,98433.30
2018-02-19T23:43:19.743Z,98429.20
2018-02-19T23:45:47.256Z,98427.92
2018-02-19T23:48:14.772Z,98422.19
2018-02-19T23:50:42.287Z,98425.70
2018-02-19T23:53:09.792Z,98427.92
2018-02-19T23:55:37.303Z,98435.05
2018-02-19T23:58:04.800Z,98430.66
